sensor_id;sensor_type;location;lat;lon;timestamp;P1;durP1;ratioP1;P2;durP2;ratioP2
41229;SDS011;26964;50.428;19.218;2023-06-19T00:00:57;12.7;;;11.0;;
41229;SDS011;26964;50.428;19.218;2023-06-19T00:01:57;13.6;;;10.9;;
41229;SDS011;26964;50.428;19.218;2023-06-19T00:02:57;11.1;;;9.5;;
41229;SDS011;26964;50.428;19.218;2023-06-19T00:03:57;12.2;;;9.7;;
41229;SDS011;26964;50.428;19.218;2023-06-19T00:04:57;14.4;;;10.2;;
41229;SDS011;26964;50.428;19.218;2023-06-19T00:05:57;11.7;;;10.0;;
41229;SDS011;26964;50.428;19.218;2023-06-19T00:06:58;10.4;;;9.2;;
41229;SDS011;26964;50.428;19.218;2023-06-19T00:07:57;12.4;;;9.3;;
41229;SDS011;26964;50.428;19.218;2023-06-19T00:09:00;11.0;;;9.6;;
41229;SDS011;26964;50.428;19.218;2023-06-19T00:09:57;12.6;;;10.4;;
41229;SDS011;26964;50.428;19.218;2023-06-19T00:10:57;13.0;;;10.0;;
41229;SDS011;26964;50.428;19.218;2023-06-19T00:11:57;12.7;;;10.3;;
41229;SDS011;26964;50.428;19.218;2023-06-19T00:12:57;13.6;;;10.4;;
41229;SDS011;26964;50.428;19.218;2023-06-19T00:13:57;11.8;;;10.4;;
41229;SDS011;26964;50.428;19.218;2023-06-19T00:14:57;11.7;;;10.3;;
41229;SDS011;26964;50.428;19.218;2023-06-19T00:15:57;12.0;;;10.1;;
41229;SDS011;26964;50.428;19.218;2023-06-19T00:16:57;12.4;;;9.7;;
41229;SDS011;26964;50.428;19.218;2023-06-19T00:17:57;10.8;;;9.5;;
41229;SDS011;26964;50.428;19.218;2023-06-19T00:18:57;12.2;;;9.4;;
41229;SDS011;26964;50.428;19.218;2023-06-19T00:19:57;14.2;;;9.1;;
41229;SDS011;26964;50.428;19.218;2023-06-19T00:20:57;10.3;;;8.7;;
41229;SDS011;26964;50.428;19.218;2023-06-19T00:21:57;11.9;;;9.7;;
41229;SDS011;26964;50.428;19.218;2023-06-19T00:22:57;10.1;;;8.3;;
41229;SDS011;26964;50.428;19.218;2023-06-19T00:23:57;10.1;;;8.1;;
41229;SDS011;26964;50.428;19.218;2023-06-19T00:24:57;10.7;;;8.4;;
41229;SDS011;26964;50.428;19.218;2023-06-19T00:25:57;11.0;;;8.4;;
41229;SDS011;26964;50.428;19.218;2023-06-19T00:26:57;10.9;;;8.8;;
41229;SDS011;26964;50.428;19.218;2023-06-19T00:27:57;8.8;;;7.9;;
41229;SDS011;26964;50.428;19.218;2023-06-19T00:28:57;8.7;;;7.6;;
41229;SDS011;26964;50.428;19.218;2023-06-19T00:30:00;12.6;;;8.7;;
41229;SDS011;26964;50.428;19.218;2023-06-19T00:30:57;11.2;;;8.6;;
41229;SDS011;26964;50.428;19.218;2023-06-19T00:31:57;11.6;;;8.5;;
41229;SDS011;26964;50.428;19.218;2023-06-19T00:32:57;10.0;;;8.1;;
41229;SDS011;26964;50.428;19.218;2023-06-19T00:33:57;10.0;;;7.9;;
41229;SDS011;26964;50.428;19.218;2023-06-19T00:34:57;9.6;;;7.8;;
41229;SDS011;26964;50.428;19.218;2023-06-19T00:35:57;9.2;;;8.2;;
41229;SDS011;26964;50.428;19.218;2023-06-19T00:36:57;9.7;;;8.5;;
41229;SDS011;26964;50.428;19.218;2023-06-19T00:37:57;9.3;;;8.3;;
41229;SDS011;26964;50.428;19.218;2023-06-19T00:38:57;9.9;;;8.5;;
41229;SDS011;26964;50.428;19.218;2023-06-19T00:39:57;10.4;;;8.1;;
41229;SDS011;26964;50.428;19.218;2023-06-19T00:40:57;11.1;;;9.0;;
41229;SDS011;26964;50.428;19.218;2023-06-19T00:41:57;9.4;;;8.1;;
41229;SDS011;26964;50.428;19.218;2023-06-19T00:42:57;10.1;;;9.1;;
41229;SDS011;26964;50.428;19.218;2023-06-19T00:43:57;10.5;;;8.4;;
41229;SDS011;26964;50.428;19.218;2023-06-19T00:44:57;11.0;;;8.8;;
41229;SDS011;26964;50.428;19.218;2023-06-19T00:45:57;10.0;;;7.9;;
41229;SDS011;26964;50.428;19.218;2023-06-19T00:46:58;9.4;;;8.2;;
41229;SDS011;26964;50.428;19.218;2023-06-19T00:47:57;11.4;;;8.2;;
41229;SDS011;26964;50.428;19.218;2023-06-19T00:48:57;9.5;;;8.5;;
41229;SDS011;26964;50.428;19.218;2023-06-19T00:49:57;13.4;;;9.9;;
41229;SDS011;26964;50.428;19.218;2023-06-19T00:51:01;9.7;;;8.7;;
41229;SDS011;26964;50.428;19.218;2023-06-19T00:51:57;11.3;;;8.6;;
41229;SDS011;26964;50.428;19.218;2023-06-19T00:52:57;11.6;;;8.8;;
41229;SDS011;26964;50.428;19.218;2023-06-19T00:53:57;11.3;;;9.4;;
41229;SDS011;26964;50.428;19.218;2023-06-19T00:54:57;10.4;;;8.8;;
41229;SDS011;26964;50.428;19.218;2023-06-19T00:55:57;9.9;;;7.9;;
41229;SDS011;26964;50.428;19.218;2023-06-19T00:56:57;9.4;;;8.4;;
41229;SDS011;26964;50.428;19.218;2023-06-19T00:57:57;11.1;;;8.3;;
41229;SDS011;26964;50.428;19.218;2023-06-19T00:58:57;10.5;;;9.0;;
41229;SDS011;26964;50.428;19.218;2023-06-19T00:59:57;9.5;;;8.3;;
41229;SDS011;26964;50.428;19.218;2023-06-19T01:00:57;9.3;;;8.3;;
41229;SDS011;26964;50.428;19.218;2023-06-19T01:01:57;11.7;;;8.7;;
41229;SDS011;26964;50.428;19.218;2023-06-19T01:02:57;11.1;;;8.9;;
41229;SDS011;26964;50.428;19.218;2023-06-19T01:03:57;10.8;;;8.4;;
41229;SDS011;26964;50.428;19.218;2023-06-19T01:04:57;11.0;;;9.0;;
41229;SDS011;26964;50.428;19.218;2023-06-19T01:05:57;9.3;;;8.3;;
41229;SDS011;26964;50.428;19.218;2023-06-19T01:06:59;9.9;;;8.6;;
41229;SDS011;26964;50.428;19.218;2023-06-19T01:07:58;11.4;;;8.9;;
41229;SDS011;26964;50.428;19.218;2023-06-19T01:08:58;11.9;;;9.0;;
41229;SDS011;26964;50.428;19.218;2023-06-19T01:09:59;12.1;;;9.5;;
41229;SDS011;26964;50.428;19.218;2023-06-19T01:10:57;11.5;;;9.7;;
41229;SDS011;26964;50.428;19.218;2023-06-19T01:12:02;12.8;;;9.6;;
41229;SDS011;26964;50.428;19.218;2023-06-19T01:12:58;11.0;;;9.2;;
41229;SDS011;26964;50.428;19.218;2023-06-19T01:13:59;11.6;;;9.0;;
41229;SDS011;26964;50.428;19.218;2023-06-19T01:14:58;12.0;;;9.4;;
41229;SDS011;26964;50.428;19.218;2023-06-19T01:15:57;12.0;;;9.4;;
41229;SDS011;26964;50.428;19.218;2023-06-19T01:16:57;16.5;;;10.7;;
41229;SDS011;26964;50.428;19.218;2023-06-19T01:17:57;13.8;;;9.0;;
41229;SDS011;26964;50.428;19.218;2023-06-19T01:18:57;12.3;;;9.2;;
41229;SDS011;26964;50.428;19.218;2023-06-19T01:19:57;11.6;;;9.3;;
41229;SDS011;26964;50.428;19.218;2023-06-19T01:20:57;10.6;;;8.9;;
41229;SDS011;26964;50.428;19.218;2023-06-19T01:22:57;12.4;;;10.0;;
41229;SDS011;26964;50.428;19.218;2023-06-19T01:23:57;11.0;;;9.5;;
41229;SDS011;26964;50.428;19.218;2023-06-19T01:24:57;11.1;;;9.6;;
41229;SDS011;26964;50.428;19.218;2023-06-19T01:25:57;12.2;;;10.0;;
41229;SDS011;26964;50.428;19.218;2023-06-19T01:26:57;12.6;;;9.7;;
41229;SDS011;26964;50.428;19.218;2023-06-19T01:27:57;15.4;;;11.0;;
41229;SDS011;26964;50.428;19.218;2023-06-19T01:28:57;15.2;;;10.2;;
41229;SDS011;26964;50.428;19.218;2023-06-19T01:29:57;10.8;;;9.0;;
41229;SDS011;26964;50.428;19.218;2023-06-19T01:30:57;11.5;;;9.2;;
41229;SDS011;26964;50.428;19.218;2023-06-19T01:31:59;12.1;;;9.5;;
41229;SDS011;26964;50.428;19.218;2023-06-19T01:33:02;11.9;;;9.1;;
41229;SDS011;26964;50.428;19.218;2023-06-19T01:33:57;12.1;;;9.6;;
41229;SDS011;26964;50.428;19.218;2023-06-19T01:34:57;13.1;;;10.4;;
41229;SDS011;26964;50.428;19.218;2023-06-19T01:35:57;12.5;;;9.7;;
41229;SDS011;26964;50.428;19.218;2023-06-19T01:36:57;14.8;;;10.2;;
41229;SDS011;26964;50.428;19.218;2023-06-19T01:37:57;13.2;;;10.5;;
41229;SDS011;26964;50.428;19.218;2023-06-19T01:38:57;14.1;;;10.7;;
41229;SDS011;26964;50.428;19.218;2023-06-19T01:39:57;13.2;;;10.0;;
41229;SDS011;26964;50.428;19.218;2023-06-19T01:40:57;14.3;;;10.8;;
41229;SDS011;26964;50.428;19.218;2023-06-19T01:41:57;12.3;;;10.6;;
41229;SDS011;26964;50.428;19.218;2023-06-19T01:42:57;13.9;;;10.1;;
41229;SDS011;26964;50.428;19.218;2023-06-19T01:43:57;15.3;;;11.0;;
41229;SDS011;26964;50.428;19.218;2023-06-19T01:44:57;15.1;;;11.2;;
41229;SDS011;26964;50.428;19.218;2023-06-19T01:45:57;15.2;;;10.8;;
41229;SDS011;26964;50.428;19.218;2023-06-19T01:46:57;13.4;;;10.4;;
41229;SDS011;26964;50.428;19.218;2023-06-19T01:47:57;13.0;;;10.0;;
41229;SDS011;26964;50.428;19.218;2023-06-19T01:48:57;13.1;;;10.9;;
41229;SDS011;26964;50.428;19.218;2023-06-19T01:49:57;14.2;;;11.5;;
41229;SDS011;26964;50.428;19.218;2023-06-19T01:50:57;12.2;;;10.4;;
41229;SDS011;26964;50.428;19.218;2023-06-19T01:51:57;16.4;;;10.7;;
41229;SDS011;26964;50.428;19.218;2023-06-19T01:52:57;14.4;;;11.0;;
41229;SDS011;26964;50.428;19.218;2023-06-19T01:54:00;12.7;;;10.2;;
41229;SDS011;26964;50.428;19.218;2023-06-19T01:54:57;14.9;;;10.8;;
41229;SDS011;26964;50.428;19.218;2023-06-19T01:55:57;15.6;;;11.2;;
41229;SDS011;26964;50.428;19.218;2023-06-19T01:56:57;14.5;;;11.3;;
41229;SDS011;26964;50.428;19.218;2023-06-19T01:57:57;13.4;;;11.0;;
41229;SDS011;26964;50.428;19.218;2023-06-19T01:58:57;13.9;;;10.7;;
41229;SDS011;26964;50.428;19.218;2023-06-19T01:59:57;14.4;;;11.5;;
41229;SDS011;26964;50.428;19.218;2023-06-19T02:00:57;13.1;;;10.6;;
41229;SDS011;26964;50.428;19.218;2023-06-19T02:01:57;14.5;;;11.5;;
41229;SDS011;26964;50.428;19.218;2023-06-19T02:02:57;14.6;;;11.5;;
41229;SDS011;26964;50.428;19.218;2023-06-19T02:03:57;13.8;;;11.2;;
41229;SDS011;26964;50.428;19.218;2023-06-19T02:04:57;14.5;;;11.8;;
41229;SDS011;26964;50.428;19.218;2023-06-19T02:05:57;13.7;;;11.5;;
41229;SDS011;26964;50.428;19.218;2023-06-19T02:06:57;17.8;;;11.5;;
41229;SDS011;26964;50.428;19.218;2023-06-19T02:07:57;13.2;;;10.6;;
41229;SDS011;26964;50.428;19.218;2023-06-19T02:08:57;13.9;;;10.4;;
41229;SDS011;26964;50.428;19.218;2023-06-19T02:09:57;15.3;;;11.4;;
41229;SDS011;26964;50.428;19.218;2023-06-19T02:10:57;14.7;;;10.8;;
41229;SDS011;26964;50.428;19.218;2023-06-19T02:11:57;12.3;;;10.8;;
41229;SDS011;26964;50.428;19.218;2023-06-19T02:12:57;13.6;;;11.0;;
41229;SDS011;26964;50.428;19.218;2023-06-19T02:13:57;13.9;;;11.3;;
41229;SDS011;26964;50.428;19.218;2023-06-19T02:15:57;14.8;;;11.3;;
41229;SDS011;26964;50.428;19.218;2023-06-19T02:16:57;17.5;;;12.2;;
41229;SDS011;26964;50.428;19.218;2023-06-19T02:17:57;15.3;;;11.0;;
41229;SDS011;26964;50.428;19.218;2023-06-19T02:18:57;13.6;;;10.0;;
41229;SDS011;26964;50.428;19.218;2023-06-19T02:19:57;12.7;;;10.3;;
41229;SDS011;26964;50.428;19.218;2023-06-19T02:20:57;12.9;;;10.7;;
41229;SDS011;26964;50.428;19.218;2023-06-19T02:21:57;13.2;;;10.7;;
41229;SDS011;26964;50.428;19.218;2023-06-19T02:22:57;12.7;;;10.1;;
41229;SDS011;26964;50.428;19.218;2023-06-19T02:23:57;13.9;;;11.4;;
41229;SDS011;26964;50.428;19.218;2023-06-19T02:24:57;14.3;;;10.7;;
41229;SDS011;26964;50.428;19.218;2023-06-19T02:25:57;13.0;;;10.6;;
41229;SDS011;26964;50.428;19.218;2023-06-19T02:26:57;13.9;;;10.9;;
41229;SDS011;26964;50.428;19.218;2023-06-19T02:27:57;12.7;;;11.0;;
41229;SDS011;26964;50.428;19.218;2023-06-19T02:28:57;12.7;;;10.7;;
41229;SDS011;26964;50.428;19.218;2023-06-19T02:29:57;16.0;;;10.9;;
41229;SDS011;26964;50.428;19.218;2023-06-19T02:30:57;14.4;;;11.5;;
41229;SDS011;26964;50.428;19.218;2023-06-19T02:31:57;16.3;;;11.3;;
41229;SDS011;26964;50.428;19.218;2023-06-19T02:32:57;16.9;;;11.5;;
41229;SDS011;26964;50.428;19.218;2023-06-19T02:33:57;14.6;;;11.2;;
41229;SDS011;26964;50.428;19.218;2023-06-19T02:34:57;15.1;;;11.3;;
41229;SDS011;26964;50.428;19.218;2023-06-19T02:36:57;12.6;;;10.6;;
41229;SDS011;26964;50.428;19.218;2023-06-19T02:37:57;13.2;;;10.1;;
41229;SDS011;26964;50.428;19.218;2023-06-19T02:38:57;12.6;;;10.9;;
41229;SDS011;26964;50.428;19.218;2023-06-19T02:39:57;13.8;;;10.8;;
41229;SDS011;26964;50.428;19.218;2023-06-19T02:40:57;14.6;;;10.6;;
41229;SDS011;26964;50.428;19.218;2023-06-19T02:41:57;12.8;;;10.4;;
41229;SDS011;26964;50.428;19.218;2023-06-19T02:42:57;13.3;;;10.4;;
41229;SDS011;26964;50.428;19.218;2023-06-19T02:43:57;14.6;;;10.8;;
41229;SDS011;26964;50.428;19.218;2023-06-19T02:44:57;13.6;;;10.7;;
41229;SDS011;26964;50.428;19.218;2023-06-19T02:45:57;13.1;;;10.8;;
41229;SDS011;26964;50.428;19.218;2023-06-19T02:46:57;16.4;;;11.0;;
41229;SDS011;26964;50.428;19.218;2023-06-19T02:47:57;13.0;;;11.5;;
41229;SDS011;26964;50.428;19.218;2023-06-19T02:48:57;13.9;;;10.7;;
41229;SDS011;26964;50.428;19.218;2023-06-19T02:49:57;14.0;;;11.4;;
41229;SDS011;26964;50.428;19.218;2023-06-19T02:50:57;16.0;;;12.1;;
41229;SDS011;26964;50.428;19.218;2023-06-19T02:51:57;14.3;;;11.9;;
41229;SDS011;26964;50.428;19.218;2023-06-19T02:52:57;14.3;;;11.7;;
41229;SDS011;26964;50.428;19.218;2023-06-19T02:53:57;17.4;;;12.2;;
41229;SDS011;26964;50.428;19.218;2023-06-19T02:54:57;15.3;;;11.4;;
41229;SDS011;26964;50.428;19.218;2023-06-19T02:55:57;13.6;;;11.2;;
41229;SDS011;26964;50.428;19.218;2023-06-19T02:56:58;15.3;;;11.7;;
41229;SDS011;26964;50.428;19.218;2023-06-19T02:57:57;14.5;;;11.3;;
41229;SDS011;26964;50.428;19.218;2023-06-19T02:58:57;15.4;;;11.7;;
41229;SDS011;26964;50.428;19.218;2023-06-19T02:59:57;13.7;;;10.7;;
41229;SDS011;26964;50.428;19.218;2023-06-19T03:00:57;14.1;;;11.4;;
41229;SDS011;26964;50.428;19.218;2023-06-19T03:01:57;14.6;;;11.3;;
41229;SDS011;26964;50.428;19.218;2023-06-19T03:02:57;14.3;;;11.1;;
41229;SDS011;26964;50.428;19.218;2023-06-19T03:03:57;13.1;;;10.6;;
41229;SDS011;26964;50.428;19.218;2023-06-19T03:04:57;12.2;;;10.5;;
41229;SDS011;26964;50.428;19.218;2023-06-19T03:05:57;15.7;;;11.6;;
41229;SDS011;26964;50.428;19.218;2023-06-19T03:06:57;14.3;;;11.7;;
41229;SDS011;26964;50.428;19.218;2023-06-19T03:07:57;14.3;;;11.7;;
41229;SDS011;26964;50.428;19.218;2023-06-19T03:08:57;15.2;;;11.3;;
41229;SDS011;26964;50.428;19.218;2023-06-19T03:09:58;17.3;;;12.9;;
41229;SDS011;26964;50.428;19.218;2023-06-19T03:10:57;18.6;;;12.0;;
41229;SDS011;26964;50.428;19.218;2023-06-19T03:11:57;16.2;;;12.1;;
41229;SDS011;26964;50.428;19.218;2023-06-19T03:12:57;15.3;;;11.4;;
41229;SDS011;26964;50.428;19.218;2023-06-19T03:13:57;15.6;;;11.5;;
41229;SDS011;26964;50.428;19.218;2023-06-19T03:14:57;15.0;;;11.0;;
41229;SDS011;26964;50.428;19.218;2023-06-19T03:15:57;17.3;;;11.9;;
41229;SDS011;26964;50.428;19.218;2023-06-19T03:16:57;13.0;;;11.3;;
41229;SDS011;26964;50.428;19.218;2023-06-19T03:18:00;14.7;;;10.9;;
41229;SDS011;26964;50.428;19.218;2023-06-19T03:18:57;13.2;;;10.9;;
41229;SDS011;26964;50.428;19.218;2023-06-19T03:19:57;16.1;;;11.6;;
41229;SDS011;26964;50.428;19.218;2023-06-19T03:20:57;14.3;;;11.4;;
41229;SDS011;26964;50.428;19.218;2023-06-19T03:21:58;14.1;;;11.0;;
41229;SDS011;26964;50.428;19.218;2023-06-19T03:22:57;14.6;;;11.8;;
41229;SDS011;26964;50.428;19.218;2023-06-19T03:23:57;15.6;;;11.7;;
41229;SDS011;26964;50.428;19.218;2023-06-19T03:24:57;16.2;;;11.9;;
41229;SDS011;26964;50.428;19.218;2023-06-19T03:25:57;15.6;;;12.9;;
41229;SDS011;26964;50.428;19.218;2023-06-19T03:26:57;17.2;;;13.1;;
41229;SDS011;26964;50.428;19.218;2023-06-19T03:27:58;17.7;;;12.5;;
41229;SDS011;26964;50.428;19.218;2023-06-19T03:28:57;20.2;;;12.7;;
41229;SDS011;26964;50.428;19.218;2023-06-19T03:29:57;16.6;;;13.3;;
41229;SDS011;26964;50.428;19.218;2023-06-19T03:30:57;18.2;;;12.3;;
41229;SDS011;26964;50.428;19.218;2023-06-19T03:31:57;14.1;;;11.1;;
41229;SDS011;26964;50.428;19.218;2023-06-19T03:32:57;19.0;;;12.4;;
41229;SDS011;26964;50.428;19.218;2023-06-19T03:33:57;16.0;;;12.8;;
41229;SDS011;26964;50.428;19.218;2023-06-19T03:34:57;18.4;;;13.1;;
41229;SDS011;26964;50.428;19.218;2023-06-19T03:35:57;16.8;;;11.9;;
41229;SDS011;26964;50.428;19.218;2023-06-19T03:36:57;19.1;;;13.1;;
41229;SDS011;26964;50.428;19.218;2023-06-19T03:37:57;17.1;;;13.1;;
41229;SDS011;26964;50.428;19.218;2023-06-19T03:38:57;18.0;;;12.7;;
41229;SDS011;26964;50.428;19.218;2023-06-19T03:39:59;19.4;;;13.9;;
41229;SDS011;26964;50.428;19.218;2023-06-19T03:40:58;19.6;;;14.8;;
41229;SDS011;26964;50.428;19.218;2023-06-19T03:42:01;17.2;;;13.9;;
41229;SDS011;26964;50.428;19.218;2023-06-19T03:42:57;17.7;;;13.3;;
41229;SDS011;26964;50.428;19.218;2023-06-19T03:43:57;17.7;;;13.1;;
41229;SDS011;26964;50.428;19.218;2023-06-19T03:44:57;17.1;;;14.0;;
41229;SDS011;26964;50.428;19.218;2023-06-19T03:46:07;18.0;;;13.4;;
41229;SDS011;26964;50.428;19.218;2023-06-19T03:46:57;20.1;;;13.6;;
41229;SDS011;26964;50.428;19.218;2023-06-19T03:47:57;22.5;;;14.2;;
41229;SDS011;26964;50.428;19.218;2023-06-19T03:49:01;19.8;;;13.6;;
41229;SDS011;26964;50.428;19.218;2023-06-19T03:50:03;18.2;;;13.2;;
41229;SDS011;26964;50.428;19.218;2023-06-19T03:50:57;19.6;;;14.3;;
41229;SDS011;26964;50.428;19.218;2023-06-19T03:52:57;15.7;;;13.5;;
41229;SDS011;26964;50.428;19.218;2023-06-19T03:53:58;17.0;;;14.3;;
41229;SDS011;26964;50.428;19.218;2023-06-19T03:54:58;17.3;;;14.3;;
41229;SDS011;26964;50.428;19.218;2023-06-19T03:55:57;17.7;;;15.2;;
41229;SDS011;26964;50.428;19.218;2023-06-19T03:56:58;16.4;;;14.3;;
41229;SDS011;26964;50.428;19.218;2023-06-19T03:57:57;16.8;;;15.0;;
41229;SDS011;26964;50.428;19.218;2023-06-19T03:58:57;17.7;;;14.0;;
41229;SDS011;26964;50.428;19.218;2023-06-19T03:59:57;15.7;;;13.7;;
41229;SDS011;26964;50.428;19.218;2023-06-19T04:00:59;18.0;;;12.9;;
41229;SDS011;26964;50.428;19.218;2023-06-19T04:01:57;17.4;;;14.0;;
41229;SDS011;26964;50.428;19.218;2023-06-19T04:02:57;18.3;;;14.0;;
41229;SDS011;26964;50.428;19.218;2023-06-19T04:03:57;15.9;;;12.9;;
41229;SDS011;26964;50.428;19.218;2023-06-19T04:04:57;17.3;;;13.2;;
41229;SDS011;26964;50.428;19.218;2023-06-19T04:05:57;17.7;;;13.0;;
41229;SDS011;26964;50.428;19.218;2023-06-19T04:06:57;17.4;;;13.4;;
41229;SDS011;26964;50.428;19.218;2023-06-19T04:07:57;20.0;;;13.4;;
41229;SDS011;26964;50.428;19.218;2023-06-19T04:08:57;17.4;;;14.0;;
41229;SDS011;26964;50.428;19.218;2023-06-19T04:09:57;17.8;;;13.9;;
41229;SDS011;26964;50.428;19.218;2023-06-19T04:10:57;19.2;;;13.2;;
41229;SDS011;26964;50.428;19.218;2023-06-19T04:11:57;20.4;;;14.5;;
41229;SDS011;26964;50.428;19.218;2023-06-19T04:13:01;19.8;;;14.5;;
41229;SDS011;26964;50.428;19.218;2023-06-19T04:13:57;18.2;;;14.5;;
41229;SDS011;26964;50.428;19.218;2023-06-19T04:14:57;20.3;;;16.1;;
41229;SDS011;26964;50.428;19.218;2023-06-19T04:15:58;21.1;;;15.9;;
41229;SDS011;26964;50.428;19.218;2023-06-19T04:16:57;20.5;;;15.2;;
41229;SDS011;26964;50.428;19.218;2023-06-19T04:17:58;20.1;;;17.3;;
41229;SDS011;26964;50.428;19.218;2023-06-19T04:18:57;20.1;;;16.7;;
41229;SDS011;26964;50.428;19.218;2023-06-19T04:19:57;21.7;;;16.6;;
41229;SDS011;26964;50.428;19.218;2023-06-19T04:20:57;20.8;;;16.4;;
41229;SDS011;26964;50.428;19.218;2023-06-19T04:21:59;21.8;;;17.1;;
41229;SDS011;26964;50.428;19.218;2023-06-19T04:22:58;20.9;;;16.9;;
41229;SDS011;26964;50.428;19.218;2023-06-19T04:23:57;24.6;;;16.9;;
41229;SDS011;26964;50.428;19.218;2023-06-19T04:24:58;20.7;;;16.5;;
41229;SDS011;26964;50.428;19.218;2023-06-19T04:25:57;21.8;;;15.7;;
41229;SDS011;26964;50.428;19.218;2023-06-19T04:26:58;16.8;;;14.6;;
41229;SDS011;26964;50.428;19.218;2023-06-19T04:27:57;19.1;;;16.0;;
41229;SDS011;26964;50.428;19.218;2023-06-19T04:28:57;20.0;;;15.6;;
41229;SDS011;26964;50.428;19.218;2023-06-19T04:29:57;20.1;;;16.4;;
41229;SDS011;26964;50.428;19.218;2023-06-19T04:30:57;22.5;;;16.1;;
41229;SDS011;26964;50.428;19.218;2023-06-19T04:31:57;22.4;;;16.0;;
41229;SDS011;26964;50.428;19.218;2023-06-19T04:32:57;19.7;;;16.1;;
41229;SDS011;26964;50.428;19.218;2023-06-19T04:33:57;22.1;;;16.4;;
41229;SDS011;26964;50.428;19.218;2023-06-19T04:34:57;20.5;;;16.3;;
41229;SDS011;26964;50.428;19.218;2023-06-19T04:35:57;20.9;;;16.2;;
41229;SDS011;26964;50.428;19.218;2023-06-19T04:36:58;21.9;;;16.3;;
41229;SDS011;26964;50.428;19.218;2023-06-19T04:37:57;21.4;;;16.4;;
41229;SDS011;26964;50.428;19.218;2023-06-19T04:38:57;22.0;;;15.5;;
41229;SDS011;26964;50.428;19.218;2023-06-19T04:39:57;29.8;;;17.0;;
41229;SDS011;26964;50.428;19.218;2023-06-19T04:40:57;26.2;;;17.4;;
41229;SDS011;26964;50.428;19.218;2023-06-19T04:41:57;23.1;;;16.6;;
41229;SDS011;26964;50.428;19.218;2023-06-19T04:42:57;20.0;;;16.6;;
41229;SDS011;26964;50.428;19.218;2023-06-19T04:43:57;21.6;;;16.6;;
41229;SDS011;26964;50.428;19.218;2023-06-19T04:44:58;22.1;;;16.9;;
41229;SDS011;26964;50.428;19.218;2023-06-19T04:45:57;22.0;;;16.2;;
41229;SDS011;26964;50.428;19.218;2023-06-19T04:46:57;22.3;;;16.4;;
41229;SDS011;26964;50.428;19.218;2023-06-19T04:47:57;20.5;;;16.4;;
41229;SDS011;26964;50.428;19.218;2023-06-19T04:48:58;22.6;;;16.9;;
41229;SDS011;26964;50.428;19.218;2023-06-19T04:49:59;22.9;;;16.7;;
41229;SDS011;26964;50.428;19.218;2023-06-19T04:50:57;20.5;;;16.0;;
41229;SDS011;26964;50.428;19.218;2023-06-19T04:51:57;21.6;;;16.8;;
41229;SDS011;26964;50.428;19.218;2023-06-19T04:53:57;23.6;;;17.2;;
41229;SDS011;26964;50.428;19.218;2023-06-19T04:54:57;27.3;;;16.7;;
41229;SDS011;26964;50.428;19.218;2023-06-19T04:55:57;18.1;;;15.9;;
41229;SDS011;26964;50.428;19.218;2023-06-19T04:56:57;21.9;;;17.7;;
41229;SDS011;26964;50.428;19.218;2023-06-19T04:57:58;25.7;;;17.5;;
41229;SDS011;26964;50.428;19.218;2023-06-19T04:58:57;25.0;;;17.0;;
41229;SDS011;26964;50.428;19.218;2023-06-19T04:59:57;24.0;;;17.1;;
41229;SDS011;26964;50.428;19.218;2023-06-19T05:00:57;22.9;;;17.2;;
41229;SDS011;26964;50.428;19.218;2023-06-19T05:01:57;22.4;;;17.2;;
41229;SDS011;26964;50.428;19.218;2023-06-19T05:02:57;21.9;;;16.9;;
41229;SDS011;26964;50.428;19.218;2023-06-19T05:03:57;22.6;;;17.4;;
41229;SDS011;26964;50.428;19.218;2023-06-19T05:04:57;21.5;;;17.2;;
41229;SDS011;26964;50.428;19.218;2023-06-19T05:05:57;24.6;;;17.5;;
41229;SDS011;26964;50.428;19.218;2023-06-19T05:06:58;21.9;;;17.1;;
41229;SDS011;26964;50.428;19.218;2023-06-19T05:07:57;23.5;;;18.5;;
41229;SDS011;26964;50.428;19.218;2023-06-19T05:08:58;22.3;;;17.2;;
41229;SDS011;26964;50.428;19.218;2023-06-19T05:09:58;22.0;;;16.9;;
41229;SDS011;26964;50.428;19.218;2023-06-19T05:10:57;22.0;;;17.2;;
41229;SDS011;26964;50.428;19.218;2023-06-19T05:11:57;25.5;;;18.7;;
41229;SDS011;26964;50.428;19.218;2023-06-19T05:12:57;25.2;;;17.5;;
41229;SDS011;26964;50.428;19.218;2023-06-19T05:14:08;23.6;;;16.8;;
41229;SDS011;26964;50.428;19.218;2023-06-19T05:14:56;24.9;;;17.6;;
41229;SDS011;26964;50.428;19.218;2023-06-19T05:15:56;24.1;;;17.9;;
41229;SDS011;26964;50.428;19.218;2023-06-19T05:16:57;20.9;;;16.6;;
41229;SDS011;26964;50.428;19.218;2023-06-19T05:17:56;25.9;;;17.3;;
41229;SDS011;26964;50.428;19.218;2023-06-19T05:18:57;24.9;;;17.3;;
41229;SDS011;26964;50.428;19.218;2023-06-19T05:19:58;23.5;;;17.2;;
41229;SDS011;26964;50.428;19.218;2023-06-19T05:20:58;26.7;;;17.9;;
41229;SDS011;26964;50.428;19.218;2023-06-19T05:21:56;24.7;;;17.4;;
41229;SDS011;26964;50.428;19.218;2023-06-19T05:22:58;22.3;;;17.0;;
41229;SDS011;26964;50.428;19.218;2023-06-19T05:23:58;26.6;;;18.6;;
41229;SDS011;26964;50.428;19.218;2023-06-19T05:24:56;23.3;;;16.4;;
41229;SDS011;26964;50.428;19.218;2023-06-19T05:25:57;24.5;;;16.9;;
41229;SDS011;26964;50.428;19.218;2023-06-19T05:27:00;23.5;;;17.1;;
41229;SDS011;26964;50.428;19.218;2023-06-19T05:27:58;25.6;;;17.7;;
41229;SDS011;26964;50.428;19.218;2023-06-19T05:29:00;30.2;;;17.2;;
41229;SDS011;26964;50.428;19.218;2023-06-19T05:30:02;21.8;;;17.2;;
41229;SDS011;26964;50.428;19.218;2023-06-19T05:31:00;32.0;;;18.6;;
41229;SDS011;26964;50.428;19.218;2023-06-19T05:32:00;24.1;;;16.9;;
41229;SDS011;26964;50.428;19.218;2023-06-19T05:33:00;23.9;;;17.3;;
41229;SDS011;26964;50.428;19.218;2023-06-19T05:34:00;24.0;;;17.4;;
41229;SDS011;26964;50.428;19.218;2023-06-19T05:35:00;25.3;;;16.7;;
41229;SDS011;26964;50.428;19.218;2023-06-19T05:36:00;23.5;;;17.1;;
41229;SDS011;26964;50.428;19.218;2023-06-19T05:37:10;24.1;;;16.5;;
41229;SDS011;26964;50.428;19.218;2023-06-19T05:38:08;25.5;;;17.2;;
41229;SDS011;26964;50.428;19.218;2023-06-19T05:39:00;24.1;;;17.3;;
41229;SDS011;26964;50.428;19.218;2023-06-19T05:40:00;23.4;;;17.2;;
41229;SDS011;26964;50.428;19.218;2023-06-19T05:41:01;24.5;;;17.4;;
41229;SDS011;26964;50.428;19.218;2023-06-19T05:42:00;23.9;;;16.2;;
41229;SDS011;26964;50.428;19.218;2023-06-19T05:43:00;23.4;;;15.9;;
41229;SDS011;26964;50.428;19.218;2023-06-19T05:44:00;30.1;;;17.1;;
41229;SDS011;26964;50.428;19.218;2023-06-19T05:45:06;22.2;;;16.6;;
41229;SDS011;26964;50.428;19.218;2023-06-19T05:47:04;21.8;;;16.1;;
41229;SDS011;26964;50.428;19.218;2023-06-19T05:48:00;24.0;;;17.1;;
41229;SDS011;26964;50.428;19.218;2023-06-19T05:49:03;21.4;;;15.5;;
41229;SDS011;26964;50.428;19.218;2023-06-19T05:50:11;22.1;;;16.4;;
41229;SDS011;26964;50.428;19.218;2023-06-19T05:51:00;22.3;;;16.2;;
41229;SDS011;26964;50.428;19.218;2023-06-19T05:52:00;23.5;;;15.7;;
41229;SDS011;26964;50.428;19.218;2023-06-19T05:53:00;21.8;;;15.5;;
41229;SDS011;26964;50.428;19.218;2023-06-19T05:54:00;21.4;;;15.1;;
41229;SDS011;26964;50.428;19.218;2023-06-19T05:55:04;20.1;;;15.5;;
41229;SDS011;26964;50.428;19.218;2023-06-19T05:56:00;23.0;;;15.7;;
41229;SDS011;26964;50.428;19.218;2023-06-19T05:57:00;19.9;;;15.9;;
41229;SDS011;26964;50.428;19.218;2023-06-19T05:58:00;23.5;;;16.3;;
41229;SDS011;26964;50.428;19.218;2023-06-19T05:59:00;20.7;;;14.8;;
41229;SDS011;26964;50.428;19.218;2023-06-19T06:00:01;22.5;;;15.1;;
41229;SDS011;26964;50.428;19.218;2023-06-19T06:01:00;23.4;;;14.8;;
41229;SDS011;26964;50.428;19.218;2023-06-19T06:02:00;18.8;;;14.0;;
41229;SDS011;26964;50.428;19.218;2023-06-19T06:03:00;23.1;;;15.0;;
41229;SDS011;26964;50.428;19.218;2023-06-19T06:04:00;24.5;;;14.9;;